Terminal Aerodrome Forecast
Issued by NWS

Home | Current Version | Previous Version | Text Only | Print | Product List | Glossary On
Versions: 1 2 3 4 5 6 7 8 9 10 11 12 13 14
608
FTUS44 KLIX 201723
TAFMCB
TAF
KMCB 201723Z 2018/2118 08005KT P6SM SKC
     FM210200 VRB03KT P6SM FEW250
     FM211000 07004KT P6SM SCT100
     FM211500 14010KT P6SM BKN025 BKN100=

USA.gov is the U.S. government's official web portal to all federal, state and local government web resources and services.